createdAt,value
2022-12-31T00:01:25.953Z,59.33
2022-12-31T00:03:53.842Z,73.57
2022-12-31T00:06:30.479Z,61.25
2022-12-31T00:09:00.153Z,62.30
2022-12-31T00:11:29.750Z,65.88
2022-12-31T00:14:01.094Z,63.10
2022-12-31T00:16:37.276Z,69.53
2022-12-31T00:19:06.613Z,61.53
2022-12-31T00:21:36.964Z,62.90
2022-12-31T00:24:17.793Z,59.03
2022-12-31T00:26:52.425Z,62.78
2022-12-31T00:29:24.057Z,48.15
2022-12-31T00:31:51.457Z,61.22
2022-12-31T00:34:19.199Z,48.67
2022-12-31T00:36:52.672Z,51.78
2022-12-31T00:41:55.411Z,54.38
2022-12-31T00:44:22.876Z,48.67
2022-12-31T00:46:50.128Z,53.00
2022-12-31T00:49:17.612Z,58.17
2022-12-31T00:51:46.817Z,65.93
2022-12-31T00:54:20.131Z,59.75
2022-12-31T00:56:47.553Z,66.75
2022-12-31T00:59:17.528Z,67.65
2022-12-31T01:01:45.264Z,70.55
2022-12-31T01:04:18.724Z,62.80
2022-12-31T01:06:46.493Z,55.30
2022-12-31T01:09:15.561Z,60.17
2022-12-31T01:11:48.221Z,55.25
2022-12-31T01:14:18.656Z,68.10
2022-12-31T01:16:52.929Z,62.58
2022-12-31T01:19:27.093Z,59.55
2022-12-31T01:21:54.851Z,55.28
2022-12-31T01:24:22.155Z,56.78
2022-12-31T01:26:51.301Z,60.78
2022-12-31T01:29:18.833Z,57.90
2022-12-31T01:31:46.433Z,48.30
2022-12-31T01:34:17.935Z,54.50
2022-12-31T01:36:47.086Z,64.70
2022-12-31T01:39:14.468Z,72.30
2022-12-31T01:41:45.656Z,51.70
2022-12-31T01:44:15.421Z,57.33
2022-12-31T01:46:46.807Z,57.67
2022-12-31T01:49:27.965Z,52.58
2022-12-31T01:52:25.862Z,51.60
2022-12-31T01:54:58.202Z,48.80
2022-12-31T01:57:27.138Z,52.60
2022-12-31T01:59:55.806Z,65.10
2022-12-31T02:02:25.905Z,61.50
2022-12-31T02:04:56.166Z,57.33
2022-12-31T02:07:23.675Z,57.83
2022-12-31T02:09:54.928Z,62.20
2022-12-31T02:12:22.766Z,56.67
2022-12-31T02:14:52.995Z,52.15
2022-12-31T02:17:20.383Z,55.88
2022-12-31T02:20:09.351Z,52.88
2022-12-31T02:22:51.080Z,46.40
2022-12-31T02:25:42.370Z,56.58
2022-12-31T02:28:19.675Z,55.35
2022-12-31T02:30:53.612Z,59.05
2022-12-31T02:33:33.152Z,64.13
2022-12-31T02:36:08.442Z,50.92
2022-12-31T02:38:42.577Z,61.50
2022-12-31T02:41:37.036Z,55.63
2022-12-31T02:44:40.632Z,59.38
2022-12-31T02:47:10.715Z,53.78
2022-12-31T02:49:59.553Z,71.28
2022-12-31T02:52:36.159Z,63.28
2022-12-31T02:55:12.066Z,61.97
2022-12-31T02:57:41.777Z,64.35
2022-12-31T03:00:33.273Z,62.78
2022-12-31T03:03:02.245Z,68.55
2022-12-31T03:05:34.072Z,53.38
2022-12-31T03:08:04.693Z,63.33
2022-12-31T03:10:38.284Z,57.40
2022-12-31T03:13:05.575Z,59.10
2022-12-31T03:15:34.419Z,57.03
2022-12-31T03:18:12.900Z,45.28
2022-12-31T03:21:09.446Z,53.17
2022-12-31T03:23:41.979Z,47.45
2022-12-31T03:26:11.970Z,49.10
2022-12-31T03:28:41.279Z,58.33
2022-12-31T03:31:09.247Z,58.42
2022-12-31T03:33:43.056Z,53.67
2022-12-31T03:36:18.754Z,56.90
2022-12-31T03:41:22.780Z,51.13
2022-12-31T03:43:50.252Z,48.45
2022-12-31T03:46:17.635Z,55.75
2022-12-31T03:48:47.870Z,60.00
2022-12-31T03:51:15.743Z,44.67
2022-12-31T03:53:42.930Z,47.67
2022-12-31T03:56:10.253Z,51.70
2022-12-31T03:58:37.473Z,48.25
2022-12-31T04:01:07.845Z,49.83
2022-12-31T04:03:35.326Z,50.78
2022-12-31T04:06:05.675Z,57.45
2022-12-31T04:08:32.927Z,51.75
2022-12-31T04:11:02.763Z,52.60
2022-12-31T04:13:30.100Z,45.47
2022-12-31T04:15:57.437Z,53.72
2022-12-31T04:18:27.348Z,47.03
2022-12-31T04:20:54.703Z,50.30
2022-12-31T04:23:27.019Z,47.75
2022-12-31T04:25:54.466Z,49.72
2022-12-31T04:28:24.655Z,45.35
2022-12-31T04:30:51.944Z,50.10
2022-12-31T04:33:19.169Z,49.72
2022-12-31T04:35:46.558Z,41.90
2022-12-31T04:38:14.011Z,49.05
2022-12-31T04:41:01.412Z,51.55
2022-12-31T04:43:28.862Z,49.28
2022-12-31T04:45:56.168Z,50.47
2022-12-31T04:48:25.402Z,48.33
2022-12-31T04:50:55.357Z,48.13
2022-12-31T04:53:24.632Z,47.22
2022-12-31T04:55:52.446Z,50.83
2022-12-31T04:58:19.866Z,49.00
2022-12-31T05:00:50.113Z,57.80
2022-12-31T05:03:21.687Z,53.40
2022-12-31T05:05:50.194Z,51.13
2022-12-31T05:08:21.451Z,51.97
2022-12-31T05:10:49.612Z,58.65
2022-12-31T05:13:17.206Z,58.03
2022-12-31T05:15:46.604Z,50.40
2022-12-31T05:18:22.686Z,58.45
2022-12-31T05:20:50.568Z,60.85
2022-12-31T05:23:25.994Z,61.38
2022-12-31T05:25:53.646Z,55.60
2022-12-31T05:28:23.276Z,56.88
2022-12-31T05:30:53.045Z,52.40
2022-12-31T05:33:21.423Z,63.17
2022-12-31T05:35:49.221Z,49.22
2022-12-31T05:38:17.273Z,61.58
2022-12-31T05:40:44.629Z,54.17
2022-12-31T05:43:11.992Z,56.90
2022-12-31T05:45:42.296Z,61.13
2022-12-31T05:48:09.568Z,47.65
2022-12-31T05:50:36.944Z,56.17
2022-12-31T05:53:07.418Z,56.50
2022-12-31T05:55:37.744Z,54.42
2022-12-31T05:58:05.153Z,48.40
2022-12-31T06:00:32.467Z,54.05
2022-12-31T06:02:59.945Z,58.38
2022-12-31T06:05:27.430Z,58.42
2022-12-31T06:07:54.919Z,65.68
2022-12-31T06:10:23.089Z,62.20
2022-12-31T06:12:53.617Z,62.00
2022-12-31T06:15:24.075Z,69.70
2022-12-31T06:17:52.189Z,66.93
2022-12-31T06:20:19.423Z,63.13
2022-12-31T06:22:46.723Z,58.50
2022-12-31T06:25:15.889Z,61.50
2022-12-31T06:27:43.247Z,78.70
2022-12-31T06:30:14.172Z,68.53
2022-12-31T06:32:42.267Z,65.43
2022-12-31T06:35:09.679Z,64.40
2022-12-31T06:37:37.006Z,58.33
2022-12-31T06:40:04.707Z,53.25
2022-12-31T06:42:32.206Z,65.88
2022-12-31T06:44:59.825Z,58.38
2022-12-31T06:47:28.053Z,70.90
2022-12-31T06:49:58.272Z,72.82
2022-12-31T06:52:25.655Z,64.43
2022-12-31T06:54:53.168Z,61.78
2022-12-31T06:57:26.794Z,64.38
2022-12-31T06:59:54.308Z,48.40
2022-12-31T07:02:40.104Z,55.75
2022-12-31T07:05:19.297Z,66.22
2022-12-31T07:07:50.208Z,72.78
2022-12-31T07:10:51.490Z,58.55
2022-12-31T07:14:01.950Z,56.78
2022-12-31T07:16:53.314Z,61.15
2022-12-31T07:19:35.479Z,74.90
2022-12-31T07:22:03.950Z,55.57
2022-12-31T07:24:31.633Z,63.30
2022-12-31T07:27:23.329Z,62.33
2022-12-31T07:30:17.368Z,59.90
2022-12-31T07:33:09.350Z,59.30
2022-12-31T07:35:50.364Z,63.45
2022-12-31T07:38:41.508Z,82.90
2022-12-31T07:41:25.161Z,87.05
2022-12-31T07:44:21.525Z,83.57
2022-12-31T07:46:57.879Z,71.72
2022-12-31T07:49:27.804Z,53.95
2022-12-31T07:51:56.556Z,69.70
2022-12-31T07:54:24.014Z,51.10
2022-12-31T07:56:51.681Z,63.92
2022-12-31T07:59:48.305Z,70.50
2022-12-31T08:02:41.512Z,75.40
2022-12-31T08:05:33.558Z,62.40
2022-12-31T08:08:06.857Z,53.83
2022-12-31T08:10:49.331Z,54.40
2022-12-31T08:13:17.657Z,43.25
2022-12-31T08:15:48.482Z,41.72
2022-12-31T08:18:18.681Z,45.30
2022-12-31T08:20:57.927Z,35.67
2022-12-31T08:23:43.870Z,38.75
2022-12-31T08:26:19.519Z,43.10
2022-12-31T08:28:55.177Z,47.33
2022-12-31T08:31:35.666Z,39.25
2022-12-31T08:34:27.209Z,45.63
2022-12-31T08:37:32.624Z,39.88
2022-12-31T08:40:22.124Z,45.53
2022-12-31T08:43:14.375Z,43.40
2022-12-31T08:45:51.902Z,46.60
2022-12-31T08:48:30.839Z,43.72
2022-12-31T08:50:58.916Z,49.28
2022-12-31T08:53:26.506Z,46.75
2022-12-31T08:56:12.555Z,47.25
2022-12-31T08:59:00.980Z,39.85
2022-12-31T09:01:34.387Z,52.67
2022-12-31T09:04:10.172Z,50.60
2022-12-31T09:07:12.098Z,52.42
2022-12-31T09:09:53.897Z,49.13
2022-12-31T09:12:58.293Z,60.90
2022-12-31T09:15:37.573Z,54.85
2022-12-31T09:18:05.326Z,50.47
2022-12-31T09:20:44.158Z,52.92
2022-12-31T09:23:13.521Z,55.50
2022-12-31T09:26:22.929Z,57.13
2022-12-31T09:29:20.226Z,48.95
2022-12-31T09:32:23.087Z,46.90
2022-12-31T09:34:54.772Z,48.45
2022-12-31T09:37:46.573Z,60.42
2022-12-31T09:40:29.220Z,44.72
2022-12-31T09:43:58.966Z,39.97
2022-12-31T09:46:51.367Z,46.08
2022-12-31T09:49:49.729Z,43.40
2022-12-31T09:52:39.895Z,45.40
2022-12-31T09:55:35.041Z,42.50
2022-12-31T09:58:17.151Z,47.90
2022-12-31T10:00:52.647Z,48.33
2022-12-31T10:03:44.756Z,46.88
2022-12-31T10:06:18.227Z,40.60
2022-12-31T10:08:57.805Z,45.50
2022-12-31T10:11:48.371Z,87.00
2022-12-31T10:14:47.709Z,97.45
2022-12-31T10:17:48.310Z,51.08
2022-12-31T10:20:32.500Z,55.22
2022-12-31T10:23:30.907Z,56.45
2022-12-31T10:26:14.263Z,48.83
2022-12-31T10:28:49.693Z,41.58
2022-12-31T10:31:49.013Z,49.80
2022-12-31T10:34:27.598Z,46.25
2022-12-31T10:37:15.432Z,50.22
2022-12-31T10:40:04.950Z,58.33
2022-12-31T10:43:02.801Z,48.47
2022-12-31T10:45:57.675Z,46.45
2022-12-31T10:48:46.268Z,49.13
2022-12-31T10:51:47.504Z,44.60
2022-12-31T10:54:57.522Z,52.45
2022-12-31T10:58:03.611Z,64.75
2022-12-31T11:01:07.727Z,70.75
2022-12-31T11:04:03.440Z,74.38
2022-12-31T11:07:07.859Z,73.40
2022-12-31T11:10:02.986Z,53.25
2022-12-31T11:12:47.433Z,68.32
2022-12-31T11:15:23.700Z,50.80
2022-12-31T11:18:10.701Z,43.40
2022-12-31T11:21:04.509Z,46.28
2022-12-31T11:23:40.761Z,42.17
2022-12-31T11:26:11.267Z,50.22
2022-12-31T11:28:51.312Z,78.93
2022-12-31T11:37:47.377Z,51.58
2022-12-31T11:40:20.893Z,42.00
2022-12-31T11:42:57.535Z,40.13
2022-12-31T11:46:03.038Z,40.70
2022-12-31T11:48:44.089Z,44.53
2022-12-31T11:57:33.968Z,45.47
2022-12-31T12:00:08.781Z,43.97
2022-12-31T12:02:58.169Z,47.47
2022-12-31T12:05:27.102Z,43.28
2022-12-31T12:07:54.709Z,40.33
2022-12-31T12:10:25.996Z,44.35
2022-12-31T12:12:58.301Z,47.42
2022-12-31T12:15:33.378Z,58.65
2022-12-31T12:18:08.425Z,44.60
2022-12-31T12:20:41.240Z,42.47
2022-12-31T12:23:25.415Z,40.60
2022-12-31T12:25:56.181Z,43.85
2022-12-31T12:28:28.845Z,43.67
2022-12-31T12:31:02.936Z,39.78
2022-12-31T12:33:42.211Z,38.05
2022-12-31T12:36:13.377Z,44.50
2022-12-31T12:38:41.259Z,40.45
2022-12-31T12:41:19.296Z,43.30
2022-12-31T12:43:46.843Z,38.83
2022-12-31T12:46:30.617Z,42.33
2022-12-31T12:48:59.506Z,41.65
2022-12-31T12:51:36.958Z,46.50
2022-12-31T12:54:16.404Z,42.10
2022-12-31T12:56:58.807Z,45.17
2022-12-31T12:59:53.626Z,40.60
2022-12-31T13:02:30.279Z,40.00
2022-12-31T13:05:28.325Z,44.95
2022-12-31T13:08:20.183Z,43.35
2022-12-31T13:11:22.910Z,35.90
2022-12-31T13:14:15.293Z,47.28
2022-12-31T13:16:42.659Z,48.78
2022-12-31T13:19:28.389Z,41.28
2022-12-31T13:22:15.559Z,46.28
2022-12-31T13:25:26.445Z,44.22
2022-12-31T13:27:58.800Z,37.75
2022-12-31T13:30:32.385Z,40.63
2022-12-31T13:33:24.398Z,44.45
2022-12-31T13:36:00.166Z,46.13
2022-12-31T13:38:29.407Z,42.88
2022-12-31T13:41:03.696Z,42.92
2022-12-31T13:43:48.824Z,52.00
2022-12-31T13:46:40.940Z,48.70
2022-12-31T13:49:43.414Z,51.53
2022-12-31T13:52:52.775Z,52.35
2022-12-31T13:56:10.807Z,51.08
2022-12-31T13:58:46.353Z,49.60
2022-12-31T14:01:30.733Z,48.05
2022-12-31T14:04:01.259Z,54.00
2022-12-31T14:06:44.477Z,54.85
2022-12-31T14:09:29.374Z,52.78
2022-12-31T14:12:06.155Z,53.30
2022-12-31T14:14:43.537Z,45.20
2022-12-31T14:17:40.444Z,52.42
2022-12-31T14:20:26.056Z,64.22
2022-12-31T14:23:12.431Z,53.80
2022-12-31T14:25:49.668Z,51.88
2022-12-31T14:28:31.963Z,47.53
2022-12-31T14:31:09.489Z,47.60
2022-12-31T14:33:48.661Z,49.53
2022-12-31T14:36:48.001Z,61.53
2022-12-31T14:39:42.895Z,61.28
2022-12-31T14:42:24.668Z,60.25
2022-12-31T14:45:19.207Z,56.63
2022-12-31T14:48:04.752Z,52.97
2022-12-31T14:50:34.086Z,64.50
2022-12-31T14:53:04.514Z,67.35
2022-12-31T14:55:36.358Z,77.15
2022-12-31T14:58:28.153Z,80.40
2022-12-31T15:01:01.293Z,71.60
2022-12-31T15:06:23.463Z,65.82
2022-12-31T15:09:44.629Z,68.45
2022-12-31T15:12:30.759Z,71.03
2022-12-31T15:15:21.040Z,76.00
2022-12-31T15:17:51.260Z,77.72
2022-12-31T15:20:38.660Z,79.55
2022-12-31T15:23:19.861Z,78.30
2022-12-31T15:25:49.758Z,161.20
2022-12-31T15:28:26.261Z,125.88
2022-12-31T15:30:58.380Z,100.20
2022-12-31T15:33:38.303Z,111.90
2022-12-31T15:36:21.215Z,105.22
2022-12-31T15:38:49.898Z,113.38
2022-12-31T15:41:20.399Z,127.57
2022-12-31T15:43:52.989Z,130.45
2022-12-31T15:46:25.135Z,173.05
2022-12-31T15:49:03.910Z,150.30
2022-12-31T15:51:52.566Z,142.25
2022-12-31T15:54:35.143Z,124.82
2022-12-31T15:57:09.064Z,153.57
2022-12-31T15:59:38.484Z,151.38
2022-12-31T16:02:27.495Z,139.25
2022-12-31T16:04:58.580Z,146.90
2022-12-31T16:07:28.625Z,168.30
2022-12-31T16:09:59.455Z,161.23
2022-12-31T16:12:34.425Z,149.88
2022-12-31T16:15:05.352Z,155.18
2022-12-31T16:17:34.890Z,158.07
2022-12-31T16:20:21.189Z,157.38
2022-12-31T16:23:02.495Z,157.70
2022-12-31T16:25:33.870Z,155.38
2022-12-31T16:28:03.955Z,152.77
2022-12-31T16:30:37.376Z,146.38
2022-12-31T16:33:07.507Z,153.50
2022-12-31T16:35:36.972Z,154.35
2022-12-31T16:38:11.955Z,145.73
2022-12-31T16:40:53.776Z,138.10
2022-12-31T16:43:39.341Z,139.77
2022-12-31T16:46:27.029Z,147.50
2022-12-31T16:49:16.127Z,170.23
2022-12-31T16:51:45.058Z,169.82
2022-12-31T16:54:35.782Z,165.38
2022-12-31T16:57:04.039Z,158.35
2022-12-31T16:59:36.673Z,172.43
2022-12-31T17:05:24.059Z,175.18
2022-12-31T17:07:52.191Z,171.68
2022-12-31T17:10:36.613Z,175.63
2022-12-31T17:13:27.996Z,246.52
2022-12-31T17:15:57.962Z,238.45
2022-12-31T17:18:30.567Z,218.82
2022-12-31T17:21:08.366Z,189.45
2022-12-31T17:23:38.438Z,191.20
2022-12-31T17:26:12.654Z,200.90
2022-12-31T17:28:46.054Z,207.43
2022-12-31T17:31:40.401Z,189.80
2022-12-31T17:34:14.307Z,191.15
2022-12-31T17:36:57.594Z,194.30
2022-12-31T17:39:42.968Z,198.80
2022-12-31T17:42:11.313Z,196.48
2022-12-31T17:44:44.479Z,187.07
2022-12-31T17:47:14.783Z,190.70
2022-12-31T17:53:14.002Z,189.27
2022-12-31T17:55:45.576Z,176.48
2022-12-31T17:58:26.132Z,163.88
2022-12-31T18:00:57.726Z,163.70
2022-12-31T18:43:56.883Z,232.07
